createdAt,value
2019-04-28T00:00:47.597Z,2.87
2019-04-28T00:03:17.690Z,2.62
2019-04-28T00:05:47.688Z,2.87
2019-04-28T00:08:17.690Z,3.03
2019-04-28T00:10:48.442Z,3.10
2019-04-28T00:13:18.223Z,2.37
2019-04-28T00:15:47.863Z,2.58
2019-04-28T00:18:17.637Z,2.60
2019-04-28T00:20:51.721Z,3.35
2019-04-28T00:23:25.591Z,2.20
2019-04-28T00:26:12.340Z,2.15
2019-04-28T00:28:41.984Z,2.45
2019-04-28T00:31:11.513Z,2.60
2019-04-28T00:33:43.387Z,2.55
2019-04-28T00:36:12.867Z,3.37
2019-04-28T00:38:42.570Z,2.60
2019-04-28T00:41:12.508Z,3.70
2019-04-28T00:43:42.416Z,3.17
2019-04-28T00:46:12.806Z,2.65
2019-04-28T00:48:42.655Z,2.95
2019-04-28T00:51:13.392Z,2.22
2019-04-28T00:53:43.297Z,2.83
2019-04-28T00:56:13.243Z,2.62
2019-04-28T00:58:43.143Z,2.53
2019-04-28T01:01:31.030Z,2.83
2019-04-28T01:04:02.172Z,2.33
2019-04-28T01:06:32.229Z,2.95
2019-04-28T01:09:03.829Z,2.37
2019-04-28T01:11:33.662Z,2.70
2019-04-28T01:14:03.787Z,3.08
2019-04-28T01:16:37.771Z,2.85
2019-04-28T01:19:11.880Z,2.85
2019-04-28T01:22:00.340Z,2.22
2019-04-28T01:24:30.191Z,3.17
2019-04-28T01:27:00.566Z,2.17
2019-04-28T01:29:30.427Z,2.58
2019-04-28T01:32:01.995Z,2.75
2019-04-28T01:34:31.877Z,2.40
2019-04-28T01:37:01.404Z,2.45
2019-04-28T01:39:31.315Z,2.95
2019-04-28T01:42:00.837Z,2.50
2019-04-28T01:44:30.763Z,2.90
2019-04-28T01:47:01.199Z,3.27
2019-04-28T01:49:30.983Z,3.30
2019-04-28T01:52:01.742Z,2.60
2019-04-28T01:54:31.639Z,2.67
2019-04-28T01:57:01.658Z,2.90
2019-04-28T01:59:31.450Z,2.35
2019-04-28T02:02:00.967Z,2.42
2019-04-28T02:04:32.531Z,2.45
2019-04-28T02:07:02.132Z,3.02
2019-04-28T02:09:31.935Z,2.40
2019-04-28T02:12:01.541Z,2.58
2019-04-28T02:14:31.458Z,3.00
2019-04-28T02:17:01.254Z,2.90
2019-04-28T02:19:33.032Z,2.50
2019-04-28T02:22:03.947Z,2.87
2019-04-28T02:24:37.430Z,2.75
2019-04-28T02:27:07.048Z,3.45
2019-04-28T02:29:36.654Z,3.50
2019-04-28T02:32:10.310Z,2.35
2019-04-28T02:34:41.099Z,3.45
2019-04-28T02:37:11.594Z,3.42
2019-04-28T02:39:41.551Z,3.08
2019-04-28T02:42:11.323Z,3.08
2019-04-28T02:44:41.090Z,2.83
2019-04-28T02:47:11.302Z,3.47
2019-04-28T02:50:01.134Z,3.12
2019-04-28T02:52:32.991Z,2.65
2019-04-28T02:55:03.800Z,3.25
2019-04-28T03:00:02.684Z,3.05
2019-04-28T03:02:32.665Z,3.12
2019-04-28T03:05:02.510Z,2.90
2019-04-28T03:07:32.411Z,3.17
2019-04-28T03:10:04.700Z,3.57
2019-04-28T03:12:34.277Z,3.37
2019-04-28T03:15:05.927Z,3.17
2019-04-28T03:17:35.928Z,3.10
2019-04-28T03:20:06.568Z,2.23
2019-04-28T03:22:36.393Z,2.90
2019-04-28T03:25:11.005Z,2.70
2019-04-28T03:27:44.944Z,3.12
2019-04-28T03:30:34.009Z,2.70
2019-04-28T03:33:11.590Z,3.27
2019-04-28T03:35:37.090Z,3.17
2019-04-28T03:38:07.092Z,2.77
2019-04-28T03:40:36.937Z,2.95
2019-04-28T03:43:06.514Z,3.12
2019-04-28T03:45:40.766Z,3.35
2019-04-28T03:48:11.434Z,2.65
2019-04-28T03:50:41.567Z,3.27
2019-04-28T03:53:11.431Z,2.90
2019-04-28T03:55:41.759Z,3.55
2019-04-28T03:58:11.674Z,2.77
2019-04-28T04:00:41.636Z,2.37
2019-04-28T04:03:11.507Z,2.92
2019-04-28T04:05:41.022Z,3.00
2019-04-28T04:08:11.162Z,2.83
2019-04-28T04:10:45.158Z,2.65
2019-04-28T04:13:19.979Z,3.27
2019-04-28T04:15:53.700Z,3.65
2019-04-28T04:18:23.302Z,2.80
2019-04-28T04:20:53.176Z,2.87
2019-04-28T04:23:23.297Z,2.92
2019-04-28T04:25:53.402Z,1.98
2019-04-28T04:28:22.935Z,3.50
2019-04-28T04:30:52.467Z,3.08
2019-04-28T04:33:22.340Z,2.80
2019-04-28T04:35:51.978Z,3.30
2019-04-28T04:38:21.963Z,3.17
2019-04-28T04:40:51.872Z,2.90
2019-04-28T04:43:23.446Z,3.37
2019-04-28T04:45:54.884Z,3.12
2019-04-28T04:48:24.799Z,2.87
2019-04-28T04:50:54.712Z,2.97
2019-04-28T04:53:26.690Z,2.65
2019-04-28T04:55:56.589Z,3.55
2019-04-28T04:58:26.520Z,2.30
2019-04-28T05:01:00.559Z,3.47
2019-04-28T05:03:40.034Z,2.80
2019-04-28T05:06:27.624Z,2.55
2019-04-28T05:08:57.340Z,3.22
2019-04-28T05:11:27.194Z,3.55
2019-04-28T05:13:57.122Z,3.70
2019-04-28T05:16:26.623Z,3.05
2019-04-28T05:18:56.543Z,2.80
2019-04-28T05:21:26.438Z,3.03
2019-04-28T05:24:15.812Z,2.62
2019-04-28T05:26:47.849Z,2.40
2019-04-28T05:29:12.582Z,2.67
2019-04-28T05:31:42.489Z,2.35
2019-04-28T05:34:12.395Z,1.98
2019-04-28T05:36:44.575Z,1.90
2019-04-28T05:39:13.475Z,1.90
2019-04-28T05:41:43.399Z,2.42
2019-04-28T05:44:13.279Z,2.10
2019-04-28T05:46:44.027Z,2.25
2019-04-28T05:49:21.284Z,1.95
2019-04-28T05:51:52.478Z,2.30
2019-04-28T05:54:24.036Z,2.33
2019-04-28T05:56:59.716Z,2.27
2019-04-28T05:59:43.156Z,2.17
2019-04-28T06:02:14.303Z,2.35
2019-04-28T06:04:44.138Z,2.45
2019-04-28T06:07:15.318Z,2.62
2019-04-28T06:09:46.462Z,2.45
2019-04-28T06:12:17.862Z,2.52
2019-04-28T06:14:47.479Z,2.40
2019-04-28T06:17:17.020Z,2.50
2019-04-28T06:19:46.539Z,2.72
2019-04-28T06:22:17.856Z,2.80
2019-04-28T06:24:50.368Z,2.85
2019-04-28T06:27:22.940Z,2.22
2019-04-28T06:29:52.734Z,2.50
2019-04-28T06:32:22.643Z,2.22
2019-04-28T06:34:52.176Z,2.37
2019-04-28T06:37:22.069Z,2.47
2019-04-28T06:39:51.842Z,2.72
2019-04-28T06:42:21.653Z,2.02
2019-04-28T06:44:51.386Z,2.77
2019-04-28T06:47:20.892Z,2.83
2019-04-28T06:49:50.511Z,2.42
2019-04-28T06:52:20.416Z,2.20
2019-04-28T06:54:50.321Z,2.60
2019-04-28T06:57:20.266Z,2.12
2019-04-28T06:59:50.220Z,1.97
2019-04-28T07:02:22.163Z,2.30
2019-04-28T07:05:01.675Z,2.60
2019-04-28T07:07:23.596Z,2.45
2019-04-28T07:09:53.431Z,2.33
2019-04-28T07:12:24.248Z,2.30
2019-04-28T07:14:54.152Z,2.10
2019-04-28T07:17:24.071Z,2.42
2019-04-28T07:19:58.400Z,1.77
2019-04-28T07:22:30.054Z,1.80
2019-04-28T07:25:00.003Z,2.37
2019-04-28T07:27:29.860Z,2.35
2019-04-28T07:29:59.786Z,2.10
2019-04-28T07:32:29.681Z,2.10
2019-04-28T07:34:59.643Z,2.30
2019-04-28T07:37:29.505Z,1.77
2019-04-28T07:39:59.044Z,2.62
2019-04-28T07:42:28.943Z,1.92
2019-04-28T07:44:58.863Z,2.27
2019-04-28T07:47:28.767Z,2.20
2019-04-28T07:49:58.692Z,2.00
2019-04-28T07:52:32.341Z,1.98
2019-04-28T07:55:02.267Z,2.62
2019-04-28T07:57:32.117Z,2.27
2019-04-28T08:00:03.095Z,2.80
2019-04-28T08:05:01.476Z,2.15
2019-04-28T08:07:31.366Z,2.58
2019-04-28T08:10:00.932Z,3.42
2019-04-28T08:12:30.782Z,2.67
2019-04-28T08:15:00.316Z,2.25
2019-04-28T08:17:30.516Z,2.75
2019-04-28T08:20:00.130Z,2.08
2019-04-28T08:22:29.658Z,2.98
2019-04-28T08:24:59.538Z,2.80
2019-04-28T08:27:29.071Z,2.30
2019-04-28T08:29:59.052Z,2.95
2019-04-28T08:32:33.107Z,2.87
2019-04-28T08:35:03.180Z,2.12
2019-04-28T08:37:32.803Z,2.90
2019-04-28T08:40:02.414Z,2.35
2019-04-28T08:42:32.247Z,2.83
2019-04-28T08:45:02.163Z,2.25
2019-04-28T08:47:32.019Z,2.30
2019-04-28T08:50:01.599Z,2.52
2019-04-28T08:52:31.518Z,2.75
2019-04-28T08:55:01.378Z,2.85
2019-04-28T08:57:30.988Z,2.75
2019-04-28T09:00:00.921Z,3.25
2019-04-28T09:02:30.816Z,3.02
2019-04-28T09:05:00.723Z,2.73
2019-04-28T09:07:30.638Z,3.37
2019-04-28T09:10:01.388Z,3.42
2019-04-28T09:12:31.299Z,2.87
2019-04-28T09:15:01.289Z,2.47
2019-04-28T09:17:50.227Z,2.50
2019-04-28T09:20:19.954Z,2.80
2019-04-28T09:22:49.775Z,2.80
2019-04-28T09:25:19.723Z,2.42
2019-04-28T09:27:49.680Z,2.20
2019-04-28T09:30:19.714Z,2.47
2019-04-28T09:32:49.469Z,2.53
2019-04-28T09:35:19.357Z,2.25
2019-04-28T09:37:49.373Z,2.50
2019-04-28T09:40:19.184Z,2.97
2019-04-28T09:42:56.471Z,2.72
2019-04-28T09:45:30.902Z,2.27
2019-04-28T09:48:00.458Z,2.95
2019-04-28T09:50:30.501Z,2.62
2019-04-28T09:53:00.249Z,2.77
2019-04-28T09:55:30.166Z,2.95
2019-04-28T09:58:00.057Z,2.33
2019-04-28T10:00:30.052Z,3.05
2019-04-28T10:02:59.900Z,2.77
2019-04-28T10:05:29.794Z,2.77
2019-04-28T10:07:59.318Z,2.55
2019-04-28T10:10:29.216Z,2.85
2019-04-28T10:12:58.755Z,2.62
2019-04-28T10:15:28.630Z,3.12
2019-04-28T10:17:58.171Z,2.87
2019-04-28T10:20:28.126Z,2.20
2019-04-28T10:22:58.052Z,2.87
2019-04-28T10:25:28.038Z,2.42
2019-04-28T10:27:57.823Z,2.12
2019-04-28T10:30:27.405Z,3.33
2019-04-28T10:32:57.294Z,2.95
2019-04-28T10:35:27.517Z,2.25
2019-04-28T10:37:57.062Z,3.47
2019-04-28T10:40:37.407Z,3.20
2019-04-28T10:43:07.180Z,2.58
2019-04-28T10:45:47.628Z,2.50
2019-04-28T10:48:17.603Z,2.70
2019-04-28T10:50:47.418Z,2.58
2019-04-28T10:53:17.018Z,2.08
2019-04-28T10:55:46.709Z,2.58
2019-04-28T10:58:16.457Z,2.80
2019-04-28T11:00:46.299Z,2.50
2019-04-28T11:03:16.064Z,1.87
2019-04-28T11:05:46.597Z,2.00
2019-04-28T11:08:34.640Z,1.77
2019-04-28T11:11:06.223Z,2.12
2019-04-28T11:13:36.223Z,2.27
2019-04-28T11:16:11.756Z,1.90
2019-04-28T11:18:42.496Z,1.85
2019-04-28T11:21:12.976Z,2.10
2019-04-28T11:23:42.963Z,2.08
2019-04-28T11:26:12.798Z,1.60
2019-04-28T11:28:42.755Z,1.55
2019-04-28T11:31:12.534Z,2.03
2019-04-28T11:33:44.070Z,2.10
2019-04-28T11:36:15.794Z,2.08
2019-04-28T11:38:45.564Z,1.95
2019-04-28T11:41:15.534Z,2.47
2019-04-28T11:43:45.374Z,2.10
2019-04-28T11:46:16.859Z,2.37
2019-04-28T11:48:46.890Z,2.02
2019-04-28T11:51:16.940Z,1.63
2019-04-28T11:53:46.838Z,1.83
2019-04-28T11:56:16.530Z,2.58
2019-04-28T11:58:46.760Z,2.08
2019-04-28T12:01:17.322Z,2.17
2019-04-28T12:03:48.731Z,1.80
2019-04-28T12:06:18.651Z,2.22
2019-04-28T12:08:50.187Z,2.22
2019-04-28T12:11:27.721Z,2.40
2019-04-28T12:14:04.827Z,2.37
2019-04-28T12:16:45.202Z,2.60
2019-04-28T12:19:25.458Z,2.00
2019-04-28T12:21:56.856Z,2.25
2019-04-28T12:24:26.527Z,2.15
2019-04-28T12:26:56.224Z,2.40
2019-04-28T12:29:25.955Z,2.25
2019-04-28T12:31:55.462Z,2.10
2019-04-28T12:34:26.478Z,2.75
2019-04-28T12:36:56.114Z,2.75
2019-04-28T12:39:25.686Z,2.58
2019-04-28T12:41:55.537Z,2.37
2019-04-28T12:44:26.368Z,2.20
2019-04-28T12:46:56.311Z,2.60
2019-04-28T12:49:27.750Z,2.60
2019-04-28T12:51:58.599Z,2.55
2019-04-28T12:56:58.888Z,2.33
2019-04-28T12:59:36.015Z,2.60
2019-04-28T13:02:10.134Z,2.60
2019-04-28T13:04:41.626Z,2.70
2019-04-28T13:07:11.475Z,3.00
2019-04-28T13:09:42.208Z,2.62
2019-04-28T13:12:11.915Z,3.42
2019-04-28T13:14:41.747Z,2.60
2019-04-28T13:17:11.663Z,2.80
2019-04-28T13:19:44.999Z,2.58
2019-04-28T13:22:14.706Z,2.58
2019-04-28T13:24:44.839Z,2.77
2019-04-28T13:27:14.599Z,2.50
2019-04-28T13:29:44.495Z,2.65
2019-04-28T13:32:14.414Z,2.55
2019-04-28T13:34:44.350Z,2.87
2019-04-28T13:37:14.228Z,2.57
2019-04-28T13:39:45.804Z,2.72
2019-04-28T13:42:15.699Z,2.92
2019-04-28T13:44:50.082Z,2.55
2019-04-28T13:47:19.801Z,2.35
2019-04-28T13:49:51.251Z,2.37
2019-04-28T13:52:21.483Z,2.98
2019-04-28T13:54:53.125Z,3.05
2019-04-28T13:57:22.966Z,2.40
2019-04-28T13:59:54.509Z,2.58
2019-04-28T14:02:38.221Z,3.10
2019-04-28T14:05:24.751Z,3.33
2019-04-28T14:07:54.594Z,2.80
2019-04-28T14:10:24.515Z,2.05
2019-04-28T14:12:54.482Z,2.90
2019-04-28T14:15:24.387Z,2.70
2019-04-28T14:17:54.230Z,2.60
2019-04-28T14:20:23.768Z,2.35
2019-04-28T14:22:53.341Z,3.47
2019-04-28T14:25:23.221Z,2.33
2019-04-28T14:27:53.067Z,2.67
2019-04-28T14:30:22.943Z,2.52
2019-04-28T14:32:52.509Z,2.77
2019-04-28T14:35:22.426Z,2.52
2019-04-28T14:37:52.314Z,2.65
2019-04-28T14:40:23.063Z,2.10
2019-04-28T14:42:52.979Z,2.22
2019-04-28T14:45:22.896Z,2.20
2019-04-28T14:47:52.424Z,2.20
2019-04-28T14:50:21.988Z,2.42
2019-04-28T14:52:51.807Z,2.45
2019-04-28T14:55:21.412Z,2.10
2019-04-28T14:57:51.214Z,3.02
2019-04-28T15:00:25.367Z,2.47
2019-04-28T15:02:56.654Z,2.92
2019-04-28T15:05:31.147Z,2.65
2019-04-28T15:08:05.157Z,2.80
2019-04-28T15:10:42.150Z,2.90
2019-04-28T15:13:12.246Z,2.95
2019-04-28T15:15:42.199Z,3.43
2019-04-28T15:18:11.968Z,3.27
2019-04-28T15:20:41.964Z,3.58
2019-04-28T15:23:15.082Z,2.92
2019-04-28T15:25:48.686Z,3.47
2019-04-28T15:28:18.573Z,2.60
2019-04-28T15:30:48.527Z,3.02
2019-04-28T15:33:18.462Z,3.20
2019-04-28T15:35:48.527Z,2.47
2019-04-28T15:38:18.808Z,2.85
2019-04-28T15:40:48.654Z,2.92
2019-04-28T15:43:18.461Z,2.37
2019-04-28T15:45:48.386Z,2.60
2019-04-28T15:48:18.360Z,3.30
2019-04-28T15:50:48.257Z,2.53
2019-04-28T15:53:18.099Z,2.42
2019-04-28T15:55:49.682Z,2.27
2019-04-28T15:58:33.087Z,2.70
2019-04-28T16:01:03.182Z,2.55
2019-04-28T16:03:32.918Z,2.87
2019-04-28T16:06:02.936Z,2.55
2019-04-28T16:08:32.757Z,2.90
2019-04-28T16:11:02.663Z,2.02
2019-04-28T16:13:32.178Z,3.50
2019-04-28T16:16:02.087Z,3.35
2019-04-28T16:18:31.620Z,2.80
2019-04-28T16:21:01.523Z,2.83
2019-04-28T16:23:31.435Z,3.30
2019-04-28T16:26:01.406Z,3.40
2019-04-28T16:28:31.263Z,2.37
2019-04-28T16:31:00.783Z,1.82
2019-04-28T16:33:30.670Z,2.35
2019-04-28T16:36:00.190Z,2.33
2019-04-28T16:38:30.086Z,1.82
2019-04-28T16:41:01.419Z,2.60
2019-04-28T16:43:32.120Z,2.10
2019-04-28T16:46:01.881Z,2.75
2019-04-28T16:48:31.414Z,2.45
2019-04-28T16:51:00.931Z,2.40
2019-04-28T16:53:31.640Z,2.50
2019-04-28T16:56:05.743Z,2.10
2019-04-28T16:58:45.693Z,3.08
2019-04-28T17:01:32.306Z,2.52
2019-04-28T17:04:02.018Z,3.12
2019-04-28T17:06:31.534Z,3.27
2019-04-28T17:09:01.630Z,3.33
2019-04-28T17:11:31.320Z,2.62
2019-04-28T17:14:00.838Z,2.80
2019-04-28T17:16:30.531Z,2.62
2019-04-28T17:19:00.366Z,2.27
2019-04-28T17:21:30.450Z,3.15
2019-04-28T17:24:00.225Z,2.58
2019-04-28T17:26:35.910Z,2.70
2019-04-28T17:29:09.567Z,3.45
2019-04-28T17:31:39.528Z,3.25
2019-04-28T17:34:09.458Z,3.07
2019-04-28T17:36:39.192Z,3.33
2019-04-28T17:39:13.625Z,3.40
2019-04-28T17:41:43.694Z,2.50
2019-04-28T17:44:13.509Z,3.17
2019-04-28T17:46:43.367Z,3.12
2019-04-28T17:49:13.292Z,2.77
2019-04-28T17:51:43.194Z,3.05
2019-04-28T17:54:13.171Z,3.65
2019-04-28T17:56:43.011Z,3.87
2019-04-28T17:59:12.923Z,3.83
2019-04-28T18:01:53.758Z,3.60
2019-04-28T18:06:57.004Z,4.20
2019-04-28T18:09:26.958Z,3.40
2019-04-28T18:11:56.827Z,4.27
2019-04-28T18:14:26.755Z,3.60
2019-04-28T18:17:01.302Z,4.80
2019-04-28T18:19:31.089Z,3.83
2019-04-28T18:22:00.984Z,4.92
2019-04-28T18:24:30.506Z,5.45
2019-04-28T18:27:00.031Z,5.22
2019-04-28T18:29:29.582Z,5.62
2019-04-28T18:32:03.832Z,5.90
2019-04-28T18:34:43.866Z,5.20
2019-04-28T18:37:21.028Z,5.43
2019-04-28T18:40:08.322Z,6.22
2019-04-28T18:42:42.536Z,6.35
2019-04-28T18:45:12.943Z,6.17
2019-04-28T18:47:42.729Z,5.08
2019-04-28T18:50:12.483Z,5.40
2019-04-28T18:52:42.256Z,5.05
2019-04-28T18:55:13.397Z,4.15
2019-04-28T18:57:43.224Z,4.60
2019-04-28T19:00:14.591Z,4.05
2019-04-28T19:02:45.845Z,3.65
2019-04-28T19:05:15.847Z,4.03
2019-04-28T19:07:49.999Z,5.97
2019-04-28T19:10:40.217Z,5.30
2019-04-28T19:13:10.964Z,6.08
2019-04-28T19:15:42.204Z,5.80
2019-04-28T19:18:19.719Z,6.92
2019-04-28T19:20:49.412Z,7.22
2019-04-28T19:23:19.447Z,6.62
2019-04-28T19:25:49.235Z,5.67
2019-04-28T19:28:18.886Z,5.97
2019-04-28T19:30:52.759Z,5.78
2019-04-28T19:33:22.701Z,5.55
2019-04-28T19:35:52.876Z,6.53
2019-04-28T19:38:22.611Z,6.37
2019-04-28T19:40:52.463Z,6.10
2019-04-28T19:43:22.348Z,6.62
2019-04-28T19:45:53.888Z,6.72
2019-04-28T19:48:23.811Z,6.35
2019-04-28T19:50:53.720Z,5.53
2019-04-28T19:53:23.627Z,6.40
2019-04-28T19:56:01.039Z,5.97
2019-04-28T19:58:35.250Z,6.30
2019-04-28T20:01:06.466Z,6.50
2019-04-28T20:03:36.408Z,6.05
2019-04-28T20:06:06.381Z,6.20
2019-04-28T20:08:36.230Z,6.00
2019-04-28T20:11:06.128Z,6.35
2019-04-28T20:13:36.055Z,7.72
2019-04-28T20:16:06.435Z,7.05
2019-04-28T20:18:36.305Z,7.15
2019-04-28T20:21:06.198Z,6.60
2019-04-28T20:23:36.118Z,5.87
2019-04-28T20:26:06.095Z,5.85
2019-04-28T20:28:35.621Z,6.13
2019-04-28T20:31:06.167Z,7.22
2019-04-28T20:33:35.782Z,5.85
2019-04-28T20:36:10.350Z,6.72
2019-04-28T20:38:41.030Z,7.15
2019-04-28T20:41:22.034Z,6.17
2019-04-28T20:46:21.723Z,6.03
2019-04-28T20:48:51.259Z,5.47
2019-04-28T20:51:21.198Z,5.47
2019-04-28T20:53:51.070Z,5.87
2019-04-28T20:56:20.630Z,5.47
2019-04-28T20:58:50.471Z,4.92
2019-04-28T21:01:20.080Z,5.35
2019-04-28T21:03:49.985Z,4.78
2019-04-28T21:06:19.923Z,5.40
2019-04-28T21:08:49.727Z,4.90
2019-04-28T21:11:20.482Z,5.00
2019-04-28T21:13:50.382Z,5.00
2019-04-28T21:16:20.412Z,5.55
2019-04-28T21:18:50.315Z,5.10
2019-04-28T21:21:20.169Z,4.92
2019-04-28T21:23:50.136Z,5.15
2019-04-28T21:26:20.186Z,5.70
2019-04-28T21:28:49.721Z,4.80
2019-04-28T21:31:20.365Z,4.65
2019-04-28T21:33:50.237Z,4.45
2019-04-28T21:36:20.747Z,5.33
2019-04-28T21:38:50.490Z,5.35
2019-04-28T21:41:20.409Z,5.55
2019-04-28T21:43:54.634Z,5.05
2019-04-28T21:46:25.809Z,5.37
2019-04-28T21:48:57.059Z,6.78
2019-04-28T21:51:27.053Z,6.45
2019-04-28T21:53:56.881Z,6.80
2019-04-28T21:56:26.806Z,6.10
2019-04-28T21:58:56.717Z,6.17
2019-04-28T22:01:27.536Z,5.97
2019-04-28T22:03:57.361Z,6.25
2019-04-28T22:06:27.291Z,6.15
2019-04-28T22:08:57.199Z,6.10
2019-04-28T22:11:27.111Z,5.57
2019-04-28T22:13:57.888Z,5.47
2019-04-28T22:16:27.774Z,6.22
2019-04-28T22:18:57.746Z,6.42
2019-04-28T22:21:27.594Z,7.10
2019-04-28T22:23:59.122Z,7.53
2019-04-28T22:26:48.202Z,6.80
2019-04-28T22:29:17.801Z,6.37
2019-04-28T22:31:47.324Z,5.60
2019-04-28T22:34:17.487Z,5.80
2019-04-28T22:36:47.600Z,4.70
2019-04-28T22:39:17.495Z,6.15
2019-04-28T22:41:47.385Z,5.72
2019-04-28T22:44:16.970Z,5.60
2019-04-28T22:46:46.806Z,5.85
2019-04-28T22:49:16.318Z,5.58
2019-04-28T22:51:46.230Z,6.25
2019-04-28T22:54:32.697Z,5.97
2019-04-28T22:57:04.096Z,6.20
2019-04-28T22:59:41.670Z,5.85
2019-04-28T23:02:12.914Z,5.53
2019-04-28T23:04:56.539Z,5.10
2019-04-28T23:07:26.265Z,5.70
2019-04-28T23:09:55.783Z,5.83
2019-04-28T23:12:26.550Z,5.95
2019-04-28T23:14:56.396Z,6.10
2019-04-28T23:17:25.995Z,6.65
2019-04-28T23:19:55.823Z,5.62
2019-04-28T23:22:29.746Z,6.20
2019-04-28T23:24:59.520Z,5.53
2019-04-28T23:27:29.353Z,6.53
2019-04-28T23:29:59.290Z,5.62
2019-04-28T23:32:31.705Z,5.63
2019-04-28T23:35:01.572Z,5.50
2019-04-28T23:37:33.525Z,5.78
2019-04-28T23:40:05.117Z,6.67
2019-04-28T23:42:42.448Z,6.40
2019-04-28T23:45:12.482Z,7.12
2019-04-28T23:47:42.362Z,6.90
2019-04-28T23:50:14.071Z,6.53
2019-04-28T23:52:45.304Z,6.62
2019-04-28T23:55:15.674Z,6.42
2019-04-28T23:57:45.541Z,6.80
